Main page
METAR-TAF:

METAR-TAF

Airports :

Annecy – Haute-Savoie – Mont Blanc Airport

Annecy, France

latitude: 45-55-45N, longitude: 006-05-56E, elevation: 463 m

Current weather observation

The report was made 40 minutes ago, at 15:00 UTC
Wind 6 kt from the West, varying between Southwest and West/Northwest
Temperature 18°C
Humidity 34%
Pressure 1019 hPa
Visibility 10 km or more
no clouds below 1500 m and no cumulonimbus

METAR: LFLP 041500Z AUTO 26006KT 230V300 CAVOK 18/02 Q1019

Time: 17:40 (15:40 UTC)


TAF: missing

Weather observations and forecasts of more than 4000 airports (METAR and TAF reports).

The available stations are represented by yellow and red dots on the map.

Hover mouse over dot to see the name of the station.

Then click to see weather observations and forecasts.

To change the map : click on the green buttons with a black cross to zoom in, on the green button with a dash to zoom out, or on the green arrows for adjacent maps.


METAR-TAF: